<?xml version="1.0" encoding="utf-8"?>
<gpx xmlns:xsi="http://www.w3.org/2001/XMLSchema-instance" xmlns:xsd="http://www.w3.org/2001/XMLSchema" version="1.1" creator="Shapelink.com" xmlns="http://www.topografix.com/GPX/1/1" xmlns:gpxtpx="http://www.garmin.com/xmlschemas/TrackPointExtension/v1">
  <metadata>
    <name>Ejecutar 5.35 km, 2019-10-20</name>
    <desc></desc>
    <author><name>Per Rooth</name></author> 
    <time>2019-10-20T11:41:42Z</time>
  </metadata>
  <trk>
    <name>Ejecutar 5.35 km, 2019-10-20</name>
    <trkseg>
      <trkpt lat="60.622493326829" lon="15.800101608694">
        <ele>119.8</ele>
        <time>2019-10-20T11:41:42Z</time>
      </trkpt>
      <trkpt lat="60.622557699821" lon="15.800082833238">
        <ele>119.8</ele>
        <time>2019-10-20T11:41:44Z</time>
      </trkpt>
      <trkpt lat="60.622752076082" lon="15.80008601836">
        <ele>119.8</ele>
        <time>2019-10-20T11:41:50Z</time>
      </trkpt>
      <trkpt lat="60.622954666605" lon="15.80008350379">
        <ele>119.4</ele>
        <time>2019-10-20T11:41:56Z</time>
      </trkpt>
      <trkpt lat="60.623091123937" lon="15.800080570125">
        <ele>120.8</ele>
        <time>2019-10-20T11:42:01Z</time>
      </trkpt>
      <trkpt lat="60.623143426993" lon="15.800044025041">
        <ele>122</ele>
        <time>2019-10-20T11:42:04Z</time>
      </trkpt>
      <trkpt lat="60.623175445851" lon="15.800033380028">
        <ele>122.8</ele>
        <time>2019-10-20T11:42:06Z</time>
      </trkpt>
      <trkpt lat="60.62322665926" lon="15.800042348661">
        <ele>123.2</ele>
        <time>2019-10-20T11:42:08Z</time>
      </trkpt>
      <trkpt lat="60.623312322278" lon="15.800017454418">
        <ele>124.4</ele>
        <time>2019-10-20T11:42:13Z</time>
      </trkpt>
      <trkpt lat="60.623348951181" lon="15.800007396138">
        <ele>125.8</ele>
        <time>2019-10-20T11:42:16Z</time>
      </trkpt>
      <trkpt lat="60.623376443813" lon="15.799985016465">
        <ele>127.2</ele>
        <time>2019-10-20T11:42:18Z</time>
      </trkpt>
      <trkpt lat="60.623413407992" lon="15.799946375906">
        <ele>128.4</ele>
        <time>2019-10-20T11:42:20Z</time>
      </trkpt>
      <trkpt lat="60.623449366343" lon="15.799933383961">
        <ele>129.4</ele>
        <time>2019-10-20T11:42:22Z</time>
      </trkpt>
      <trkpt lat="60.623498149001" lon="15.799883511656">
        <ele>131</ele>
        <time>2019-10-20T11:42:25Z</time>
      </trkpt>
      <trkpt lat="60.623532430972" lon="15.799869513883">
        <ele>132.2</ele>
        <time>2019-10-20T11:42:27Z</time>
      </trkpt>
      <trkpt lat="60.623581884182" lon="15.799795920801">
        <ele>133.4</ele>
        <time>2019-10-20T11:42:30Z</time>
      </trkpt>
      <trkpt lat="60.623635276885" lon="15.799755520043">
        <ele>134.6</ele>
        <time>2019-10-20T11:42:33Z</time>
      </trkpt>
      <trkpt lat="60.623671989607" lon="15.799724004099">
        <ele>135.8</ele>
        <time>2019-10-20T11:42:36Z</time>
      </trkpt>
      <trkpt lat="60.623724963215" lon="15.799711515068">
        <ele>137</ele>
        <time>2019-10-20T11:42:39Z</time>
      </trkpt>
      <trkpt lat="60.623806183826" lon="15.799678238925">
        <ele>138</ele>
        <time>2019-10-20T11:42:43Z</time>
      </trkpt>
      <trkpt lat="60.623815739192" lon="15.799657619451">
        <ele>138.2</ele>
        <time>2019-10-20T11:42:44Z</time>
      </trkpt>
      <trkpt lat="60.623830910431" lon="15.799611938096">
        <ele>138.8</ele>
        <time>2019-10-20T11:42:46Z</time>
      </trkpt>
      <trkpt lat="60.623829904603" lon="15.799482270103">
        <ele>139.2</ele>
        <time>2019-10-20T11:42:49Z</time>
      </trkpt>
      <trkpt lat="60.623886985342" lon="15.799122602774">
        <ele>139.4</ele>
        <time>2019-10-20T11:42:58Z</time>
      </trkpt>
      <trkpt lat="60.623885728057" lon="15.798740555772">
        <ele>138.4</ele>
        <time>2019-10-20T11:43:06Z</time>
      </trkpt>
      <trkpt lat="60.623875585958" lon="15.798566296071">
        <ele>138.8</ele>
        <time>2019-10-20T11:43:10Z</time>
      </trkpt>
      <trkpt lat="60.623881034193" lon="15.798397736062">
        <ele>138.8</ele>
        <time>2019-10-20T11:43:15Z</time>
      </trkpt>
      <trkpt lat="60.623936941466" lon="15.798247448595">
        <ele>139.2</ele>
        <time>2019-10-20T11:43:20Z</time>
      </trkpt>
      <trkpt lat="60.62395504637" lon="15.798099927155">
        <ele>137.8</ele>
        <time>2019-10-20T11:43:24Z</time>
      </trkpt>
      <trkpt lat="60.623961500433" lon="15.798082492803">
        <ele>137.4</ele>
        <time>2019-10-20T11:43:25Z</time>
      </trkpt>
      <trkpt lat="60.623972732179" lon="15.798053072334">
        <ele>136.8</ele>
        <time>2019-10-20T11:43:27Z</time>
      </trkpt>
      <trkpt lat="60.623977006948" lon="15.798027004625">
        <ele>136.8</ele>
        <time>2019-10-20T11:43:28Z</time>
      </trkpt>
      <trkpt lat="60.624059568663" lon="15.797834053287">
        <ele>136.4</ele>
        <time>2019-10-20T11:43:41Z</time>
      </trkpt>
      <trkpt lat="60.624145902233" lon="15.797820223152">
        <ele>137</ele>
        <time>2019-10-20T11:43:46Z</time>
      </trkpt>
      <trkpt lat="60.624288478352" lon="15.797750318106">
        <ele>137.8</ele>
        <time>2019-10-20T11:43:52Z</time>
      </trkpt>
      <trkpt lat="60.624301805573" lon="15.797736068876">
        <ele>137.8</ele>
        <time>2019-10-20T11:43:53Z</time>
      </trkpt>
      <trkpt lat="60.624339021209" lon="15.797355446797">
        <ele>136.8</ele>
        <time>2019-10-20T11:44:03Z</time>
      </trkpt>
      <trkpt lat="60.624348492756" lon="15.797190826281">
        <ele>136.2</ele>
        <time>2019-10-20T11:44:07Z</time>
      </trkpt>
      <trkpt lat="60.624348325118" lon="15.797100050304">
        <ele>135.8</ele>
        <time>2019-10-20T11:44:09Z</time>
      </trkpt>
      <trkpt lat="60.624347235471" lon="15.797066774161">
        <ele>135.6</ele>
        <time>2019-10-20T11:44:10Z</time>
      </trkpt>
      <trkpt lat="60.624343379797" lon="15.797131650067">
        <ele>135.6</ele>
        <time>2019-10-20T11:44:18Z</time>
      </trkpt>
      <trkpt lat="60.624393084464" lon="15.797223096596">
        <ele>134.6</ele>
        <time>2019-10-20T11:44:21Z</time>
      </trkpt>
      <trkpt lat="60.624404735305" lon="15.797254780178">
        <ele>133</ele>
        <time>2019-10-20T11:44:22Z</time>
      </trkpt>
      <trkpt lat="60.624438682" lon="15.797296605859">
        <ele>133.6</ele>
        <time>2019-10-20T11:44:24Z</time>
      </trkpt>
      <trkpt lat="60.624583856508" lon="15.797383442343">
        <ele>134.2</ele>
        <time>2019-10-20T11:44:31Z</time>
      </trkpt>
      <trkpt lat="60.624748728481" lon="15.797432476458">
        <ele>134.2</ele>
        <time>2019-10-20T11:44:39Z</time>
      </trkpt>
      <trkpt lat="60.624762139521" lon="15.797390315501">
        <ele>134</ele>
        <time>2019-10-20T11:44:42Z</time>
      </trkpt>
      <trkpt lat="60.624831541653" lon="15.797565497211">
        <ele>134.4</ele>
        <time>2019-10-20T11:44:53Z</time>
      </trkpt>
      <trkpt lat="60.624883174157" lon="15.797659877405">
        <ele>134.6</ele>
        <time>2019-10-20T11:44:56Z</time>
      </trkpt>
      <trkpt lat="60.624904464183" lon="15.797748557907">
        <ele>135.2</ele>
        <time>2019-10-20T11:44:59Z</time>
      </trkpt>
      <trkpt lat="60.624918210499" lon="15.797762974775">
        <ele>135.2</ele>
        <time>2019-10-20T11:45:00Z</time>
      </trkpt>
      <trkpt lat="60.624995407798" lon="15.797742942034">
        <ele>135.2</ele>
        <time>2019-10-20T11:45:07Z</time>
      </trkpt>
      <trkpt lat="60.625058355867" lon="15.797698685602">
        <ele>135.2</ele>
        <time>2019-10-20T11:45:10Z</time>
      </trkpt>
      <trkpt lat="60.625174445182" lon="15.797481175297">
        <ele>135.6</ele>
        <time>2019-10-20T11:45:16Z</time>
      </trkpt>
      <trkpt lat="60.625200345253" lon="15.797364080154">
        <ele>136.2</ele>
        <time>2019-10-20T11:45:19Z</time>
      </trkpt>
      <trkpt lat="60.625222305831" lon="15.797284452104">
        <ele>135.4</ele>
        <time>2019-10-20T11:45:21Z</time>
      </trkpt>
      <trkpt lat="60.625241500382" lon="15.797207757719">
        <ele>135.2</ele>
        <time>2019-10-20T11:45:22Z</time>
      </trkpt>
      <trkpt lat="60.625337473137" lon="15.797158304509">
        <ele>134</ele>
        <time>2019-10-20T11:45:27Z</time>
      </trkpt>
      <trkpt lat="60.625372844755" lon="15.797080688115">
        <ele>133.8</ele>
        <time>2019-10-20T11:45:30Z</time>
      </trkpt>
      <trkpt lat="60.625550457216" lon="15.796946074801">
        <ele>134.8</ele>
        <time>2019-10-20T11:45:37Z</time>
      </trkpt>
      <trkpt lat="60.625714071904" lon="15.796721607519">
        <ele>134</ele>
        <time>2019-10-20T11:45:44Z</time>
      </trkpt>
      <trkpt lat="60.625766207322" lon="15.796657150708">
        <ele>133.8</ele>
        <time>2019-10-20T11:45:47Z</time>
      </trkpt>
      <trkpt lat="60.62578230057" lon="15.796616833769">
        <ele>133.8</ele>
        <time>2019-10-20T11:45:48Z</time>
      </trkpt>
      <trkpt lat="60.626006767852" lon="15.796615995579">
        <ele>133.8</ele>
        <time>2019-10-20T11:45:58Z</time>
      </trkpt>
      <trkpt lat="60.626199635371" lon="15.796653295034">
        <ele>133.6</ele>
        <time>2019-10-20T11:46:02Z</time>
      </trkpt>
      <trkpt lat="60.626405746292" lon="15.796728061582">
        <ele>134</ele>
        <time>2019-10-20T11:46:08Z</time>
      </trkpt>
      <trkpt lat="60.626571204998" lon="15.796874996289">
        <ele>134</ele>
        <time>2019-10-20T11:46:14Z</time>
      </trkpt>
      <trkpt lat="60.626747476355" lon="15.797004748101">
        <ele>135.4</ele>
        <time>2019-10-20T11:46:19Z</time>
      </trkpt>
      <trkpt lat="60.626854429399" lon="15.797070797473">
        <ele>136.4</ele>
        <time>2019-10-20T11:46:22Z</time>
      </trkpt>
      <trkpt lat="60.626891812673" lon="15.797085381979">
        <ele>137.6</ele>
        <time>2019-10-20T11:46:23Z</time>
      </trkpt>
      <trkpt lat="60.626927687205" lon="15.797114802448">
        <ele>138.8</ele>
        <time>2019-10-20T11:46:24Z</time>
      </trkpt>
      <trkpt lat="60.627097839775" lon="15.797346226707">
        <ele>138</ele>
        <time>2019-10-20T11:46:29Z</time>
      </trkpt>
      <trkpt lat="60.627126002959" lon="15.797388555302">
        <ele>137.4</ele>
        <time>2019-10-20T11:46:30Z</time>
      </trkpt>
      <trkpt lat="60.627289952923" lon="15.797634899343">
        <ele>136.8</ele>
        <time>2019-10-20T11:46:35Z</time>
      </trkpt>
      <trkpt lat="60.62738408166" lon="15.797815194012">
        <ele>136.4</ele>
        <time>2019-10-20T11:46:41Z</time>
      </trkpt>
      <trkpt lat="60.627380309805" lon="15.797819133505">
        <ele>136.2</ele>
        <time>2019-10-20T11:46:42Z</time>
      </trkpt>
      <trkpt lat="60.627369664792" lon="15.797898677736">
        <ele>136.2</ele>
        <time>2019-10-20T11:46:46Z</time>
      </trkpt>
      <trkpt lat="60.627360947616" lon="15.798004876409">
        <ele>136</ele>
        <time>2019-10-20T11:46:48Z</time>
      </trkpt>
      <trkpt lat="60.627391122456" lon="15.798292543217">
        <ele>137.4</ele>
        <time>2019-10-20T11:46:54Z</time>
      </trkpt>
      <trkpt lat="60.627389362257" lon="15.79833336307">
        <ele>137.4</ele>
        <time>2019-10-20T11:46:55Z</time>
      </trkpt>
      <trkpt lat="60.627412915396" lon="15.798435957526">
        <ele>137.8</ele>
        <time>2019-10-20T11:46:58Z</time>
      </trkpt>
      <trkpt lat="60.627421884029" lon="15.798617341842">
        <ele>138.6</ele>
        <time>2019-10-20T11:47:03Z</time>
      </trkpt>
      <trkpt lat="60.627427416083" lon="15.798712727864">
        <ele>139.2</ele>
        <time>2019-10-20T11:47:06Z</time>
      </trkpt>
      <trkpt lat="60.627525316675" lon="15.798758828314">
        <ele>139</ele>
        <time>2019-10-20T11:47:10Z</time>
      </trkpt>
      <trkpt lat="60.62770510843" lon="15.798754888821">
        <ele>138.6</ele>
        <time>2019-10-20T11:47:13Z</time>
      </trkpt>
      <trkpt lat="60.627843577418" lon="15.798682553024">
        <ele>137.6</ele>
        <time>2019-10-20T11:47:17Z</time>
      </trkpt>
      <trkpt lat="60.627850618214" lon="15.798717505547">
        <ele>137.2</ele>
        <time>2019-10-20T11:47:18Z</time>
      </trkpt>
      <trkpt lat="60.627915158844" lon="15.799065270578">
        <ele>136.2</ele>
        <time>2019-10-20T11:47:25Z</time>
      </trkpt>
      <trkpt lat="60.627913566283" lon="15.79909946873">
        <ele>136.2</ele>
        <time>2019-10-20T11:47:26Z</time>
      </trkpt>
      <trkpt lat="60.6279087886" lon="15.799159315496">
        <ele>136.4</ele>
        <time>2019-10-20T11:47:28Z</time>
      </trkpt>
      <trkpt lat="60.627920104165" lon="15.799257299907">
        <ele>137.2</ele>
        <time>2019-10-20T11:47:31Z</time>
      </trkpt>
      <trkpt lat="60.627992020867" lon="15.799404653709">
        <ele>137.6</ele>
        <time>2019-10-20T11:47:36Z</time>
      </trkpt>
      <trkpt lat="60.628003084975" lon="15.799458465507">
        <ele>137.4</ele>
        <time>2019-10-20T11:47:39Z</time>
      </trkpt>
      <trkpt lat="60.628031583435" lon="15.799547313647">
        <ele>137.4</ele>
        <time>2019-10-20T11:47:42Z</time>
      </trkpt>
      <trkpt lat="60.628048933968" lon="15.799630797371">
        <ele>137.4</ele>
        <time>2019-10-20T11:47:44Z</time>
      </trkpt>
      <trkpt lat="60.628071732736" lon="15.799707743213">
        <ele>138.2</ele>
        <time>2019-10-20T11:47:46Z</time>
      </trkpt>
      <trkpt lat="60.628093609495" lon="15.799791478394">
        <ele>138.8</ele>
        <time>2019-10-20T11:47:48Z</time>
      </trkpt>
      <trkpt lat="60.628112133494" lon="15.799832633523">
        <ele>139.2</ele>
        <time>2019-10-20T11:47:49Z</time>
      </trkpt>
      <trkpt lat="60.628133926434" lon="15.799867586046">
        <ele>139.2</ele>
        <time>2019-10-20T11:47:50Z</time>
      </trkpt>
      <trkpt lat="60.62826250478" lon="15.800169166808">
        <ele>139.2</ele>
        <time>2019-10-20T11:47:58Z</time>
      </trkpt>
      <trkpt lat="60.628365518331" lon="15.800533863277">
        <ele>139</ele>
        <time>2019-10-20T11:48:06Z</time>
      </trkpt>
      <trkpt lat="60.628409104211" lon="15.800667806039">
        <ele>139.2</ele>
        <time>2019-10-20T11:48:09Z</time>
      </trkpt>
      <trkpt lat="60.628429723685" lon="15.800760426034">
        <ele>139.2</ele>
        <time>2019-10-20T11:48:11Z</time>
      </trkpt>
      <trkpt lat="60.628457635412" lon="15.800805939751">
        <ele>139.4</ele>
        <time>2019-10-20T11:48:13Z</time>
      </trkpt>
      <trkpt lat="60.628591997269" lon="15.800908031293">
        <ele>138.6</ele>
        <time>2019-10-20T11:48:18Z</time>
      </trkpt>
      <trkpt lat="60.628656202623" lon="15.800961340177">
        <ele>138.4</ele>
        <time>2019-10-20T11:48:21Z</time>
      </trkpt>
      <trkpt lat="60.628703727996" lon="15.801002830582">
        <ele>138.4</ele>
        <time>2019-10-20T11:48:23Z</time>
      </trkpt>
      <trkpt lat="60.628712696629" lon="15.801028479196">
        <ele>138.2</ele>
        <time>2019-10-20T11:48:24Z</time>
      </trkpt>
      <trkpt lat="60.628774806508" lon="15.8010884936">
        <ele>138</ele>
        <time>2019-10-20T11:48:26Z</time>
      </trkpt>
      <trkpt lat="60.628882430104" lon="15.801170133306">
        <ele>138.6</ele>
        <time>2019-10-20T11:48:30Z</time>
      </trkpt>
      <trkpt lat="60.628955855548" lon="15.801237104687">
        <ele>139.4</ele>
        <time>2019-10-20T11:48:32Z</time>
      </trkpt>
      <trkpt lat="60.629085272084" lon="15.801401892841">
        <ele>140.4</ele>
        <time>2019-10-20T11:48:37Z</time>
      </trkpt>
      <trkpt lat="60.629104131359" lon="15.801436090993">
        <ele>140.6</ele>
        <time>2019-10-20T11:48:38Z</time>
      </trkpt>
      <trkpt lat="60.629122571539" lon="15.801554191964">
        <ele>141</ele>
        <time>2019-10-20T11:48:41Z</time>
      </trkpt>
      <trkpt lat="60.629141095538" lon="15.80159056941">
        <ele>141.2</ele>
        <time>2019-10-20T11:48:43Z</time>
      </trkpt>
      <trkpt lat="60.629183005038" lon="15.801604902459">
        <ele>141.4</ele>
        <time>2019-10-20T11:48:49Z</time>
      </trkpt>
      <trkpt lat="60.629254418826" lon="15.80175569284">
        <ele>141.4</ele>
        <time>2019-10-20T11:48:55Z</time>
      </trkpt>
      <trkpt lat="60.629292891747" lon="15.801891731077">
        <ele>141.8</ele>
        <time>2019-10-20T11:48:58Z</time>
      </trkpt>
      <trkpt lat="60.629322982768" lon="15.802004719089">
        <ele>142.6</ele>
        <time>2019-10-20T11:49:01Z</time>
      </trkpt>
      <trkpt lat="60.629318205085" lon="15.802037576137">
        <ele>142.8</ele>
        <time>2019-10-20T11:49:02Z</time>
      </trkpt>
      <trkpt lat="60.629310158461" lon="15.80213204015">
        <ele>144.4</ele>
        <time>2019-10-20T11:49:05Z</time>
      </trkpt>
      <trkpt lat="60.629328850098" lon="15.802277969029">
        <ele>145.6</ele>
        <time>2019-10-20T11:49:09Z</time>
      </trkpt>
      <trkpt lat="60.629349385753" lon="15.802498496818">
        <ele>146.6</ele>
        <time>2019-10-20T11:49:14Z</time>
      </trkpt>
      <trkpt lat="60.62935215178" lon="15.802737297149">
        <ele>147.6</ele>
        <time>2019-10-20T11:49:20Z</time>
      </trkpt>
      <trkpt lat="60.629357935291" lon="15.802772501129">
        <ele>147.8</ele>
        <time>2019-10-20T11:49:21Z</time>
      </trkpt>
      <trkpt lat="60.629373022711" lon="15.802901330932">
        <ele>148.6</ele>
        <time>2019-10-20T11:49:25Z</time>
      </trkpt>
      <trkpt lat="60.629374866729" lon="15.802916753628">
        <ele>148.8</ele>
        <time>2019-10-20T11:49:26Z</time>
      </trkpt>
      <trkpt lat="60.629364054078" lon="15.802948521029">
        <ele>149</ele>
        <time>2019-10-20T11:49:27Z</time>
      </trkpt>
      <trkpt lat="60.62935131359" lon="15.803071315864">
        <ele>149.4</ele>
        <time>2019-10-20T11:49:31Z</time>
      </trkpt>
      <trkpt lat="60.629357683834" lon="15.803262171727">
        <ele>150.2</ele>
        <time>2019-10-20T11:49:35Z</time>
      </trkpt>
      <trkpt lat="60.629379644412" lon="15.803397120317">
        <ele>151.2</ele>
        <time>2019-10-20T11:49:38Z</time>
      </trkpt>
      <trkpt lat="60.629431947468" lon="15.80355612496">
        <ele>152.4</ele>
        <time>2019-10-20T11:49:43Z</time>
      </trkpt>
      <trkpt lat="60.629450722924" lon="15.803756620008">
        <ele>153</ele>
        <time>2019-10-20T11:49:49Z</time>
      </trkpt>
      <trkpt lat="60.629377884213" lon="15.803912607167">
        <ele>153.2</ele>
        <time>2019-10-20T11:49:54Z</time>
      </trkpt>
      <trkpt lat="60.62933035884" lon="15.803990977932">
        <ele>153.4</ele>
        <time>2019-10-20T11:49:56Z</time>
      </trkpt>
      <trkpt lat="60.629190967843" lon="15.804304209535">
        <ele>153.8</ele>
        <time>2019-10-20T11:50:03Z</time>
      </trkpt>
      <trkpt lat="60.629107065024" lon="15.804443013799">
        <ele>154.6</ele>
        <time>2019-10-20T11:50:07Z</time>
      </trkpt>
      <trkpt lat="60.628977061755" lon="15.804696566274">
        <ele>154.4</ele>
        <time>2019-10-20T11:50:14Z</time>
      </trkpt>
      <trkpt lat="60.628882681561" lon="15.804884320834">
        <ele>155.4</ele>
        <time>2019-10-20T11:50:19Z</time>
      </trkpt>
      <trkpt lat="60.628851081798" lon="15.805262512162">
        <ele>155.4</ele>
        <time>2019-10-20T11:50:29Z</time>
      </trkpt>
      <trkpt lat="60.628862565001" lon="15.805440040804">
        <ele>154.8</ele>
        <time>2019-10-20T11:50:34Z</time>
      </trkpt>
      <trkpt lat="60.628835072369" lon="15.805822255444">
        <ele>155.4</ele>
        <time>2019-10-20T11:50:42Z</time>
      </trkpt>
      <trkpt lat="60.628830043229" lon="15.805906996453">
        <ele>155.6</ele>
        <time>2019-10-20T11:50:44Z</time>
      </trkpt>
      <trkpt lat="60.628774471232" lon="15.806163314955">
        <ele>155.2</ele>
        <time>2019-10-20T11:50:50Z</time>
      </trkpt>
      <trkpt lat="60.628785619159" lon="15.806283008487">
        <ele>155.6</ele>
        <time>2019-10-20T11:50:53Z</time>
      </trkpt>
      <trkpt lat="60.628772459576" lon="15.806338161389">
        <ele>155.6</ele>
        <time>2019-10-20T11:50:55Z</time>
      </trkpt>
      <trkpt lat="60.628748487342" lon="15.806506134665">
        <ele>155.2</ele>
        <time>2019-10-20T11:51:00Z</time>
      </trkpt>
      <trkpt lat="60.628759970545" lon="15.806685591144">
        <ele>155</ele>
        <time>2019-10-20T11:51:04Z</time>
      </trkpt>
      <trkpt lat="60.628824762632" lon="15.80683428605">
        <ele>155.8</ele>
        <time>2019-10-20T11:51:09Z</time>
      </trkpt>
      <trkpt lat="60.628826858107" lon="15.806857168637">
        <ele>156</ele>
        <time>2019-10-20T11:51:10Z</time>
      </trkpt>
      <trkpt lat="60.628842196984" lon="15.806874770627">
        <ele>156.6</ele>
        <time>2019-10-20T11:51:12Z</time>
      </trkpt>
      <trkpt lat="60.628845214468" lon="15.806921793086">
        <ele>157.2</ele>
        <time>2019-10-20T11:51:14Z</time>
      </trkpt>
      <trkpt lat="60.628856865309" lon="15.806952806116">
        <ele>157.4</ele>
        <time>2019-10-20T11:51:16Z</time>
      </trkpt>
      <trkpt lat="60.628888800348" lon="15.806988093915">
        <ele>157.8</ele>
        <time>2019-10-20T11:51:19Z</time>
      </trkpt>
      <trkpt lat="60.628918136998" lon="15.807157743571">
        <ele>158.2</ele>
        <time>2019-10-20T11:51:41Z</time>
      </trkpt>
      <trkpt lat="60.628950407313" lon="15.807305265011">
        <ele>158.8</ele>
        <time>2019-10-20T11:51:45Z</time>
      </trkpt>
      <trkpt lat="60.628968428398" lon="15.807378941912">
        <ele>159.6</ele>
        <time>2019-10-20T11:51:48Z</time>
      </trkpt>
      <trkpt lat="60.628960046498" lon="15.807410876951">
        <ele>159.8</ele>
        <time>2019-10-20T11:51:49Z</time>
      </trkpt>
      <trkpt lat="60.628969350407" lon="15.807575497467">
        <ele>161</ele>
        <time>2019-10-20T11:51:54Z</time>
      </trkpt>
      <trkpt lat="60.628966165285" lon="15.807628973989">
        <ele>161.6</ele>
        <time>2019-10-20T11:51:56Z</time>
      </trkpt>
      <trkpt lat="60.628950742589" lon="15.807778423266">
        <ele>162.2</ele>
        <time>2019-10-20T11:52:00Z</time>
      </trkpt>
      <trkpt lat="60.628938840291" lon="15.80785939242">
        <ele>162.8</ele>
        <time>2019-10-20T11:52:03Z</time>
      </trkpt>
      <trkpt lat="60.628920819206" lon="15.808000459797">
        <ele>163.4</ele>
        <time>2019-10-20T11:52:06Z</time>
      </trkpt>
      <trkpt lat="60.628888465072" lon="15.80815694987">
        <ele>164.4</ele>
        <time>2019-10-20T11:52:09Z</time>
      </trkpt>
      <trkpt lat="60.628856446214" lon="15.808344285335">
        <ele>165.6</ele>
        <time>2019-10-20T11:52:13Z</time>
      </trkpt>
      <trkpt lat="60.628837586939" lon="15.808492477327">
        <ele>166.8</ele>
        <time>2019-10-20T11:52:17Z</time>
      </trkpt>
      <trkpt lat="60.628837419301" lon="15.808665395924">
        <ele>168</ele>
        <time>2019-10-20T11:52:21Z</time>
      </trkpt>
      <trkpt lat="60.628832641618" lon="15.808831525182">
        <ele>169.2</ele>
        <time>2019-10-20T11:52:24Z</time>
      </trkpt>
      <trkpt lat="60.628818560026" lon="15.808879721107">
        <ele>169.4</ele>
        <time>2019-10-20T11:52:25Z</time>
      </trkpt>
      <trkpt lat="60.62879140267" lon="15.809071498979">
        <ele>170.2</ele>
        <time>2019-10-20T11:52:30Z</time>
      </trkpt>
      <trkpt lat="60.628788301367" lon="15.809093124281">
        <ele>170.6</ele>
        <time>2019-10-20T11:52:31Z</time>
      </trkpt>
      <trkpt lat="60.628815374904" lon="15.809252967114">
        <ele>171.4</ele>
        <time>2019-10-20T11:53:28Z</time>
      </trkpt>
      <trkpt lat="60.62887019253" lon="15.80937483994">
        <ele>172.4</ele>
        <time>2019-10-20T11:53:35Z</time>
      </trkpt>
      <trkpt lat="60.628875640765" lon="15.809388334799">
        <ele>172.6</ele>
        <time>2019-10-20T11:53:36Z</time>
      </trkpt>
      <trkpt lat="60.628909419822" lon="15.809473075808">
        <ele>172.8</ele>
        <time>2019-10-20T11:53:40Z</time>
      </trkpt>
      <trkpt lat="60.628944372345" lon="15.80961791504">
        <ele>173.6</ele>
        <time>2019-10-20T11:53:44Z</time>
      </trkpt>
      <trkpt lat="60.628973373719" lon="15.809752360716">
        <ele>174.6</ele>
        <time>2019-10-20T11:53:48Z</time>
      </trkpt>
      <trkpt lat="60.629053085588" lon="15.810097862634">
        <ele>175.4</ele>
        <time>2019-10-20T11:53:57Z</time>
      </trkpt>
      <trkpt lat="60.629207647824" lon="15.810286120108">
        <ele>174.8</ele>
        <time>2019-10-20T11:54:03Z</time>
      </trkpt>
      <trkpt lat="60.629390540882" lon="15.810435317928">
        <ele>174.8</ele>
        <time>2019-10-20T11:54:09Z</time>
      </trkpt>
      <trkpt lat="60.629490872225" lon="15.810469935175">
        <ele>175.6</ele>
        <time>2019-10-20T11:54:14Z</time>
      </trkpt>
      <trkpt lat="60.629552563009" lon="15.810520813308">
        <ele>176.4</ele>
        <time>2019-10-20T11:54:17Z</time>
      </trkpt>
      <trkpt lat="60.629586928799" lon="15.810567751948">
        <ele>176.4</ele>
        <time>2019-10-20T11:54:19Z</time>
      </trkpt>
      <trkpt lat="60.62973855737" lon="15.810834380187">
        <ele>176.2</ele>
        <time>2019-10-20T11:54:26Z</time>
      </trkpt>
      <trkpt lat="60.629791782435" lon="15.81091543316">
        <ele>176.4</ele>
        <time>2019-10-20T11:54:29Z</time>
      </trkpt>
      <trkpt lat="60.62982237637" lon="15.810975447564">
        <ele>176.4</ele>
        <time>2019-10-20T11:54:31Z</time>
      </trkpt>
      <trkpt lat="60.629925641378" lon="15.811099667322">
        <ele>176.6</ele>
        <time>2019-10-20T11:54:39Z</time>
      </trkpt>
      <trkpt lat="60.629987415981" lon="15.811139732804">
        <ele>176.8</ele>
        <time>2019-10-20T11:54:48Z</time>
      </trkpt>
      <trkpt lat="60.630153377601" lon="15.811026409516">
        <ele>177.6</ele>
        <time>2019-10-20T11:55:09Z</time>
      </trkpt>
      <trkpt lat="60.630338366134" lon="15.810932532236">
        <ele>177.4</ele>
        <time>2019-10-20T11:55:17Z</time>
      </trkpt>
      <trkpt lat="60.630402990583" lon="15.810891712383">
        <ele>177.4</ele>
        <time>2019-10-20T11:55:20Z</time>
      </trkpt>
      <trkpt lat="60.630565515624" lon="15.81111492238">
        <ele>176.4</ele>
        <time>2019-10-20T11:55:29Z</time>
      </trkpt>
      <trkpt lat="60.630591164238" lon="15.811201758864">
        <ele>176</ele>
        <time>2019-10-20T11:55:32Z</time>
      </trkpt>
      <trkpt lat="60.63059434936" lon="15.811247440219">
        <ele>175.8</ele>
        <time>2019-10-20T11:55:34Z</time>
      </trkpt>
      <trkpt lat="60.630596444835" lon="15.811283230932">
        <ele>175.4</ele>
        <time>2019-10-20T11:55:35Z</time>
      </trkpt>
      <trkpt lat="60.63061195135" lon="15.811370989425">
        <ele>174.8</ele>
        <time>2019-10-20T11:55:37Z</time>
      </trkpt>
      <trkpt lat="60.630652268289" lon="15.811469812026">
        <ele>174.4</ele>
        <time>2019-10-20T11:55:39Z</time>
      </trkpt>
      <trkpt lat="60.630788306526" lon="15.811510212784">
        <ele>173.4</ele>
        <time>2019-10-20T11:55:43Z</time>
      </trkpt>
      <trkpt lat="60.630913196836" lon="15.811304688596">
        <ele>174.8</ele>
        <time>2019-10-20T11:55:48Z</time>
      </trkpt>
      <trkpt lat="60.631013025265" lon="15.810976537211">
        <ele>175.6</ele>
        <time>2019-10-20T11:55:55Z</time>
      </trkpt>
      <trkpt lat="60.631025430477" lon="15.810922557775">
        <ele>176</ele>
        <time>2019-10-20T11:55:56Z</time>
      </trkpt>
      <trkpt lat="60.631055772955" lon="15.810801104044">
        <ele>177</ele>
        <time>2019-10-20T11:55:58Z</time>
      </trkpt>
      <trkpt lat="60.63109726336" lon="15.810573870735">
        <ele>178</ele>
        <time>2019-10-20T11:56:02Z</time>
      </trkpt>
      <trkpt lat="60.631114613893" lon="15.810338255526">
        <ele>179.2</ele>
        <time>2019-10-20T11:56:05Z</time>
      </trkpt>
      <trkpt lat="60.63113079096" lon="15.810204061307">
        <ele>180.4</ele>
        <time>2019-10-20T11:56:07Z</time>
      </trkpt>
      <trkpt lat="60.631189967174" lon="15.809874652637">
        <ele>181.6</ele>
        <time>2019-10-20T11:56:12Z</time>
      </trkpt>
      <trkpt lat="60.631273534717" lon="15.809553039134">
        <ele>182.6</ele>
        <time>2019-10-20T11:56:19Z</time>
      </trkpt>
      <trkpt lat="60.631278563857" lon="15.809512051643">
        <ele>182.8</ele>
        <time>2019-10-20T11:56:20Z</time>
      </trkpt>
      <trkpt lat="60.631275211097" lon="15.809333852449">
        <ele>183.8</ele>
        <time>2019-10-20T11:56:23Z</time>
      </trkpt>
      <trkpt lat="60.631262973523" lon="15.809160682395">
        <ele>185.2</ele>
        <time>2019-10-20T11:56:26Z</time>
      </trkpt>
      <trkpt lat="60.631232463407" lon="15.808792968442">
        <ele>185.6</ele>
        <time>2019-10-20T11:56:32Z</time>
      </trkpt>
      <trkpt lat="60.631230200294" lon="15.808410250888">
        <ele>185.4</ele>
        <time>2019-10-20T11:56:38Z</time>
      </trkpt>
      <trkpt lat="60.631232798683" lon="15.808047817532">
        <ele>184.2</ele>
        <time>2019-10-20T11:56:44Z</time>
      </trkpt>
      <trkpt lat="60.631231625217" lon="15.8077437222">
        <ele>182.8</ele>
        <time>2019-10-20T11:56:49Z</time>
      </trkpt>
      <trkpt lat="60.631251657958" lon="15.807567953757">
        <ele>181.6</ele>
        <time>2019-10-20T11:56:53Z</time>
      </trkpt>
      <trkpt lat="60.631269511405" lon="15.807264780434">
        <ele>181</ele>
        <time>2019-10-20T11:57:00Z</time>
      </trkpt>
      <trkpt lat="60.631288538318" lon="15.80721147155">
        <ele>181</ele>
        <time>2019-10-20T11:57:02Z</time>
      </trkpt>
      <trkpt lat="60.631315947131" lon="15.807186242031">
        <ele>181.6</ele>
        <time>2019-10-20T11:57:05Z</time>
      </trkpt>
      <trkpt lat="60.631360538839" lon="15.807175680837">
        <ele>182</ele>
        <time>2019-10-20T11:57:09Z</time>
      </trkpt>
      <trkpt lat="60.631370680938" lon="15.807163862358">
        <ele>182.2</ele>
        <time>2019-10-20T11:57:10Z</time>
      </trkpt>
      <trkpt lat="60.631418206311" lon="15.807153552621">
        <ele>182.2</ele>
        <time>2019-10-20T11:57:14Z</time>
      </trkpt>
      <trkpt lat="60.63144427402" lon="15.807151792422">
        <ele>182.4</ele>
        <time>2019-10-20T11:57:16Z</time>
      </trkpt>
      <trkpt lat="60.631493224316" lon="15.807138884296">
        <ele>182.8</ele>
        <time>2019-10-20T11:57:19Z</time>
      </trkpt>
      <trkpt lat="60.631500851845" lon="15.807129831844">
        <ele>182.8</ele>
        <time>2019-10-20T11:57:20Z</time>
      </trkpt>
      <trkpt lat="60.631523650613" lon="15.807101165746">
        <ele>183</ele>
        <time>2019-10-20T11:57:22Z</time>
      </trkpt>
      <trkpt lat="60.631580647533" lon="15.807091191285">
        <ele>184</ele>
        <time>2019-10-20T11:57:27Z</time>
      </trkpt>
      <trkpt lat="60.631586682501" lon="15.80708909581">
        <ele>184</ele>
        <time>2019-10-20T11:57:28Z</time>
      </trkpt>
      <trkpt lat="60.631607637251" lon="15.807085323955">
        <ele>184.2</ele>
        <time>2019-10-20T11:57:30Z</time>
      </trkpt>
      <trkpt lat="60.631636387168" lon="15.807100662832">
        <ele>184.4</ele>
        <time>2019-10-20T11:57:32Z</time>
      </trkpt>
      <trkpt lat="60.63168399636" lon="15.807086245964">
        <ele>184.6</ele>
        <time>2019-10-20T11:57:35Z</time>
      </trkpt>
      <trkpt lat="60.631746441515" lon="15.807125221799">
        <ele>184.8</ele>
        <time>2019-10-20T11:57:39Z</time>
      </trkpt>
      <trkpt lat="60.631792374327" lon="15.807141315047">
        <ele>185</ele>
        <time>2019-10-20T11:57:41Z</time>
      </trkpt>
      <trkpt lat="60.631834619103" lon="15.807178865959">
        <ele>186.2</ele>
        <time>2019-10-20T11:57:45Z</time>
      </trkpt>
      <trkpt lat="60.63188683834" lon="15.807196216492">
        <ele>187</ele>
        <time>2019-10-20T11:57:48Z</time>
      </trkpt>
      <trkpt lat="60.631914163334" lon="15.807197138501">
        <ele>187</ele>
        <time>2019-10-20T11:57:50Z</time>
      </trkpt>
      <trkpt lat="60.631969316236" lon="15.807184900927">
        <ele>187</ele>
        <time>2019-10-20T11:57:55Z</time>
      </trkpt>
      <trkpt lat="60.632002089465" lon="15.807159000856">
        <ele>186.8</ele>
        <time>2019-10-20T11:57:57Z</time>
      </trkpt>
      <trkpt lat="60.632062439145" lon="15.807121952858">
        <ele>187.4</ele>
        <time>2019-10-20T11:58:02Z</time>
      </trkpt>
      <trkpt lat="60.6320913567" lon="15.807136537364">
        <ele>187.2</ele>
        <time>2019-10-20T11:58:07Z</time>
      </trkpt>
      <trkpt lat="60.63210560593" lon="15.807161599245">
        <ele>186.8</ele>
        <time>2019-10-20T11:58:11Z</time>
      </trkpt>
      <trkpt lat="60.632132511829" lon="15.807227229522">
        <ele>187</ele>
        <time>2019-10-20T11:58:18Z</time>
      </trkpt>
      <trkpt lat="60.632129494345" lon="15.807269809574">
        <ele>187.4</ele>
        <time>2019-10-20T11:58:20Z</time>
      </trkpt>
      <trkpt lat="60.632104683921" lon="15.807336110403">
        <ele>188.2</ele>
        <time>2019-10-20T11:58:23Z</time>
      </trkpt>
      <trkpt lat="60.632087668664" lon="15.807382378491">
        <ele>188.4</ele>
        <time>2019-10-20T11:58:25Z</time>
      </trkpt>
      <trkpt lat="60.632075934004" lon="15.80742521">
        <ele>188.6</ele>
        <time>2019-10-20T11:58:27Z</time>
      </trkpt>
      <trkpt lat="60.632041232938" lon="15.807530486664">
        <ele>188.8</ele>
        <time>2019-10-20T11:58:31Z</time>
      </trkpt>
      <trkpt lat="60.631995048669" lon="15.807707596211">
        <ele>189.2</ele>
        <time>2019-10-20T11:58:36Z</time>
      </trkpt>
      <trkpt lat="60.63206285824" lon="15.807711619523">
        <ele>188.6</ele>
        <time>2019-10-20T11:58:55Z</time>
      </trkpt>
      <trkpt lat="60.632207362196" lon="15.80749394158">
        <ele>188.8</ele>
        <time>2019-10-20T11:59:00Z</time>
      </trkpt>
      <trkpt lat="60.632374413463" lon="15.807268049375">
        <ele>188.2</ele>
        <time>2019-10-20T11:59:06Z</time>
      </trkpt>
      <trkpt lat="60.632536938504" lon="15.807095968968">
        <ele>189.4</ele>
        <time>2019-10-20T11:59:11Z</time>
      </trkpt>
      <trkpt lat="60.632565856059" lon="15.80705892097">
        <ele>190</ele>
        <time>2019-10-20T11:59:12Z</time>
      </trkpt>
      <trkpt lat="60.632670713628" lon="15.806745857005">
        <ele>189.8</ele>
        <time>2019-10-20T11:59:17Z</time>
      </trkpt>
      <trkpt lat="60.632783114907" lon="15.806422650941">
        <ele>189.8</ele>
        <time>2019-10-20T11:59:23Z</time>
      </trkpt>
      <trkpt lat="60.632793257006" lon="15.806000706095">
        <ele>190.2</ele>
        <time>2019-10-20T11:59:29Z</time>
      </trkpt>
      <trkpt lat="60.632793424644" lon="15.805791158595">
        <ele>188.8</ele>
        <time>2019-10-20T11:59:32Z</time>
      </trkpt>
      <trkpt lat="60.632726788539" lon="15.805472143481">
        <ele>187.6</ele>
        <time>2019-10-20T11:59:37Z</time>
      </trkpt>
      <trkpt lat="60.632699547364" lon="15.805340463832">
        <ele>186.4</ele>
        <time>2019-10-20T11:59:39Z</time>
      </trkpt>
      <trkpt lat="60.63266551685" lon="15.805215154427">
        <ele>185.4</ele>
        <time>2019-10-20T11:59:41Z</time>
      </trkpt>
      <trkpt lat="60.632611285957" lon="15.805068303539">
        <ele>184.2</ele>
        <time>2019-10-20T11:59:44Z</time>
      </trkpt>
      <trkpt lat="60.6325355974" lon="15.804925895058">
        <ele>182.8</ele>
        <time>2019-10-20T11:59:47Z</time>
      </trkpt>
      <trkpt lat="60.632469631847" lon="15.804795305056">
        <ele>181.6</ele>
        <time>2019-10-20T11:59:50Z</time>
      </trkpt>
      <trkpt lat="60.632416825877" lon="15.804696566274">
        <ele>180.4</ele>
        <time>2019-10-20T11:59:52Z</time>
      </trkpt>
      <trkpt lat="60.632396793136" lon="15.804602269899">
        <ele>179.4</ele>
        <time>2019-10-20T11:59:54Z</time>
      </trkpt>
      <trkpt lat="60.632354380722" lon="15.804455838106">
        <ele>178.2</ele>
        <time>2019-10-20T11:59:57Z</time>
      </trkpt>
      <trkpt lat="60.632249355515" lon="15.804138834648">
        <ele>177</ele>
        <time>2019-10-20T12:00:02Z</time>
      </trkpt>
      <trkpt lat="60.632190011663" lon="15.80390062105">
        <ele>175.8</ele>
        <time>2019-10-20T12:00:06Z</time>
      </trkpt>
      <trkpt lat="60.632156819339" lon="15.803810180349">
        <ele>175.4</ele>
        <time>2019-10-20T12:00:08Z</time>
      </trkpt>
      <trkpt lat="60.632156567882" lon="15.803731641946">
        <ele>174.2</ele>
        <time>2019-10-20T12:00:10Z</time>
      </trkpt>
      <trkpt lat="60.632161429384" lon="15.803704400771">
        <ele>173.6</ele>
        <time>2019-10-20T12:00:11Z</time>
      </trkpt>
      <trkpt lat="60.632165285058" lon="15.80368855898">
        <ele>173</ele>
        <time>2019-10-20T12:00:12Z</time>
      </trkpt>
      <trkpt lat="60.632167296714" lon="15.803673974474">
        <ele>172.6</ele>
        <time>2019-10-20T12:00:13Z</time>
      </trkpt>
      <trkpt lat="60.632247511497" lon="15.803512874356">
        <ele>172.4</ele>
        <time>2019-10-20T12:00:26Z</time>
      </trkpt>
      <trkpt lat="60.632283972762" lon="15.803475993996">
        <ele>172.6</ele>
        <time>2019-10-20T12:00:29Z</time>
      </trkpt>
      <trkpt lat="60.632307190625" lon="15.803419919085">
        <ele>172.8</ele>
        <time>2019-10-20T12:00:31Z</time>
      </trkpt>
      <trkpt lat="60.632289253359" lon="15.803413129746">
        <ele>173</ele>
        <time>2019-10-20T12:00:34Z</time>
      </trkpt>
      <trkpt lat="60.632221779064" lon="15.803462499137">
        <ele>173.2</ele>
        <time>2019-10-20T12:00:38Z</time>
      </trkpt>
      <trkpt lat="60.632199818486" lon="15.803454871608">
        <ele>172.6</ele>
        <time>2019-10-20T12:00:46Z</time>
      </trkpt>
      <trkpt lat="60.632211301689" lon="15.803407262416">
        <ele>172.4</ele>
        <time>2019-10-20T12:00:48Z</time>
      </trkpt>
      <trkpt lat="60.632207362196" lon="15.803256472035">
        <ele>171.8</ele>
        <time>2019-10-20T12:00:52Z</time>
      </trkpt>
      <trkpt lat="60.632172074397" lon="15.802979366421">
        <ele>170.4</ele>
        <time>2019-10-20T12:00:59Z</time>
      </trkpt>
      <trkpt lat="60.632138882073" lon="15.802842238537">
        <ele>169.2</ele>
        <time>2019-10-20T12:01:02Z</time>
      </trkpt>
      <trkpt lat="60.632112898183" lon="15.802739476443">
        <ele>167.8</ele>
        <time>2019-10-20T12:01:04Z</time>
      </trkpt>
      <trkpt lat="60.632097307849" lon="15.802589775709">
        <ele>166.6</ele>
        <time>2019-10-20T12:01:07Z</time>
      </trkpt>
      <trkpt lat="60.632074257624" lon="15.802471674738">
        <ele>165.4</ele>
        <time>2019-10-20T12:01:10Z</time>
      </trkpt>
      <trkpt lat="60.632085237913" lon="15.802415851284">
        <ele>165.2</ele>
        <time>2019-10-20T12:01:12Z</time>
      </trkpt>
      <trkpt lat="60.632087836302" lon="15.802288865499">
        <ele>164.2</ele>
        <time>2019-10-20T12:01:15Z</time>
      </trkpt>
      <trkpt lat="60.632084232085" lon="15.802246369266">
        <ele>164</ele>
        <time>2019-10-20T12:01:16Z</time>
      </trkpt>
      <trkpt lat="60.63206788738" lon="15.80219322802">
        <ele>163.4</ele>
        <time>2019-10-20T12:01:18Z</time>
      </trkpt>
      <trkpt lat="60.632058164376" lon="15.802179397885">
        <ele>163</ele>
        <time>2019-10-20T12:01:19Z</time>
      </trkpt>
      <trkpt lat="60.632030923201" lon="15.802107648821">
        <ele>162</ele>
        <time>2019-10-20T12:01:21Z</time>
      </trkpt>
      <trkpt lat="60.631996473592" lon="15.802016453749">
        <ele>160.8</ele>
        <time>2019-10-20T12:01:24Z</time>
      </trkpt>
      <trkpt lat="60.631988846063" lon="15.801989715488">
        <ele>160.4</ele>
        <time>2019-10-20T12:01:25Z</time>
      </trkpt>
      <trkpt lat="60.631992366461" lon="15.801935736052">
        <ele>160</ele>
        <time>2019-10-20T12:01:27Z</time>
      </trkpt>
      <trkpt lat="60.632036958169" lon="15.801771283174">
        <ele>159.8</ele>
        <time>2019-10-20T12:01:32Z</time>
      </trkpt>
      <trkpt lat="60.632127482689" lon="15.801451848965">
        <ele>159.2</ele>
        <time>2019-10-20T12:01:39Z</time>
      </trkpt>
      <trkpt lat="60.632178947555" lon="15.801210114969">
        <ele>158.6</ele>
        <time>2019-10-20T12:01:43Z</time>
      </trkpt>
      <trkpt lat="60.632180037202" lon="15.801167954012">
        <ele>158.4</ele>
        <time>2019-10-20T12:01:44Z</time>
      </trkpt>
      <trkpt lat="60.632215576458" lon="15.800955640485">
        <ele>157.6</ele>
        <time>2019-10-20T12:01:48Z</time>
      </trkpt>
      <trkpt lat="60.632332168687" lon="15.800642911796">
        <ele>156.6</ele>
        <time>2019-10-20T12:01:54Z</time>
      </trkpt>
      <trkpt lat="60.632353626351" lon="15.800589183817">
        <ele>156.6</ele>
        <time>2019-10-20T12:01:55Z</time>
      </trkpt>
      <trkpt lat="60.632444989061" lon="15.800313503126">
        <ele>155</ele>
        <time>2019-10-20T12:02:00Z</time>
      </trkpt>
      <trkpt lat="60.632470889132" lon="15.799920140559">
        <ele>154.8</ele>
        <time>2019-10-20T12:02:05Z</time>
      </trkpt>
      <trkpt lat="60.632475918272" lon="15.799725680479">
        <ele>154</ele>
        <time>2019-10-20T12:02:08Z</time>
      </trkpt>
      <trkpt lat="60.632482539973" lon="15.799591821536">
        <ele>152.2</ele>
        <time>2019-10-20T12:02:10Z</time>
      </trkpt>
      <trkpt lat="60.632483042887" lon="15.799526861811">
        <ele>151.4</ele>
        <time>2019-10-20T12:02:11Z</time>
      </trkpt>
      <trkpt lat="60.632487150018" lon="15.799475229307">
        <ele>150.8</ele>
        <time>2019-10-20T12:02:12Z</time>
      </trkpt>
      <trkpt lat="60.63253475921" lon="15.799352434472">
        <ele>149.4</ele>
        <time>2019-10-20T12:02:15Z</time>
      </trkpt>
      <trkpt lat="60.632664008108" lon="15.799186389033">
        <ele>148.4</ele>
        <time>2019-10-20T12:02:21Z</time>
      </trkpt>
      <trkpt lat="60.632807422417" lon="15.798963179036">
        <ele>148.2</ele>
        <time>2019-10-20T12:02:26Z</time>
      </trkpt>
      <trkpt lat="60.632933570012" lon="15.798672327106">
        <ele>147.2</ele>
        <time>2019-10-20T12:02:31Z</time>
      </trkpt>
      <trkpt lat="60.633019400668" lon="15.798286843525">
        <ele>146.2</ele>
        <time>2019-10-20T12:02:36Z</time>
      </trkpt>
      <trkpt lat="60.633077571054" lon="15.798088779228">
        <ele>145.2</ele>
        <time>2019-10-20T12:02:39Z</time>
      </trkpt>
      <trkpt lat="60.63309634651" lon="15.798030441204">
        <ele>144.8</ele>
        <time>2019-10-20T12:02:40Z</time>
      </trkpt>
      <trkpt lat="60.633142614598" lon="15.797825336111">
        <ele>143.6</ele>
        <time>2019-10-20T12:02:43Z</time>
      </trkpt>
      <trkpt lat="60.633189301781" lon="15.797595420594">
        <ele>142.2</ele>
        <time>2019-10-20T12:02:46Z</time>
      </trkpt>
      <trkpt lat="60.633233558213" lon="15.797395260822">
        <ele>141.2</ele>
        <time>2019-10-20T12:02:49Z</time>
      </trkpt>
      <trkpt lat="60.633325507656" lon="15.797066606523">
        <ele>140.2</ele>
        <time>2019-10-20T12:02:53Z</time>
      </trkpt>
      <trkpt lat="60.633350653356" lon="15.796981194962">
        <ele>139.8</ele>
        <time>2019-10-20T12:02:54Z</time>
      </trkpt>
      <trkpt lat="60.63344838631" lon="15.796695623629">
        <ele>138.8</ele>
        <time>2019-10-20T12:02:58Z</time>
      </trkpt>
      <trkpt lat="60.633504209764" lon="15.796476939858">
        <ele>137.8</ele>
        <time>2019-10-20T12:03:01Z</time>
      </trkpt>
      <trkpt lat="60.633488116516" lon="15.796215089302">
        <ele>136.6</ele>
        <time>2019-10-20T12:03:05Z</time>
      </trkpt>
      <trkpt lat="60.633448721586" lon="15.796167396291">
        <ele>135.4</ele>
        <time>2019-10-20T12:03:07Z</time>
      </trkpt>
      <trkpt lat="60.633395328883" lon="15.796163037703">
        <ele>134.4</ele>
        <time>2019-10-20T12:03:09Z</time>
      </trkpt>
      <trkpt lat="60.633289633124" lon="15.796237636613">
        <ele>133.4</ele>
        <time>2019-10-20T12:03:12Z</time>
      </trkpt>
      <trkpt lat="60.633108164989" lon="15.796388175537">
        <ele>132.8</ele>
        <time>2019-10-20T12:03:17Z</time>
      </trkpt>
      <trkpt lat="60.632919991334" lon="15.796529242914">
        <ele>132.8</ele>
        <time>2019-10-20T12:03:22Z</time>
      </trkpt>
      <trkpt lat="60.632735505715" lon="15.796643739668">
        <ele>133.4</ele>
        <time>2019-10-20T12:03:27Z</time>
      </trkpt>
      <trkpt lat="60.632552528838" lon="15.796723451537">
        <ele>133.8</ele>
        <time>2019-10-20T12:03:32Z</time>
      </trkpt>
      <trkpt lat="60.632348513392" lon="15.796805426519">
        <ele>134.2</ele>
        <time>2019-10-20T12:03:37Z</time>
      </trkpt>
      <trkpt lat="60.632268633885" lon="15.796842055422">
        <ele>134.4</ele>
        <time>2019-10-20T12:03:39Z</time>
      </trkpt>
      <trkpt lat="60.632074089986" lon="15.796931490295">
        <ele>134.4</ele>
        <time>2019-10-20T12:03:44Z</time>
      </trkpt>
      <trkpt lat="60.631877366793" lon="15.7970567997">
        <ele>135.4</ele>
        <time>2019-10-20T12:03:50Z</time>
      </trkpt>
      <trkpt lat="60.631674608632" lon="15.797214966153">
        <ele>135.8</ele>
        <time>2019-10-20T12:03:55Z</time>
      </trkpt>
      <trkpt lat="60.631473275394" lon="15.797243464613">
        <ele>135.2</ele>
        <time>2019-10-20T12:04:00Z</time>
      </trkpt>
      <trkpt lat="60.631416194655" lon="15.797191329195">
        <ele>134.8</ele>
        <time>2019-10-20T12:04:02Z</time>
      </trkpt>
      <trkpt lat="60.631387780014" lon="15.797171464092">
        <ele>134.4</ele>
        <time>2019-10-20T12:04:03Z</time>
      </trkpt>
      <trkpt lat="60.631362550495" lon="15.796964347343">
        <ele>133.2</ele>
        <time>2019-10-20T12:04:07Z</time>
      </trkpt>
      <trkpt lat="60.631352240758" lon="15.796920510006">
        <ele>133.2</ele>
        <time>2019-10-20T12:04:08Z</time>
      </trkpt>
      <trkpt lat="60.6312866943" lon="15.796572409699">
        <ele>133.4</ele>
        <time>2019-10-20T12:04:14Z</time>
      </trkpt>
      <trkpt lat="60.631272025975" lon="15.796274014059">
        <ele>132</ele>
        <time>2019-10-20T12:04:19Z</time>
      </trkpt>
      <trkpt lat="60.63124310842" lon="15.795897750568">
        <ele>131.2</ele>
        <time>2019-10-20T12:04:25Z</time>
      </trkpt>
      <trkpt lat="60.631243024601" lon="15.79547681155">
        <ele>131</ele>
        <time>2019-10-20T12:04:32Z</time>
      </trkpt>
      <trkpt lat="60.63124981394" lon="15.795418473526">
        <ele>130.8</ele>
        <time>2019-10-20T12:04:33Z</time>
      </trkpt>
      <trkpt lat="60.631298848055" lon="15.795065008803">
        <ele>129.8</ele>
        <time>2019-10-20T12:04:39Z</time>
      </trkpt>
      <trkpt lat="60.631310331258" lon="15.795009017711">
        <ele>129.6</ele>
        <time>2019-10-20T12:04:40Z</time>
      </trkpt>
      <trkpt lat="60.631275378735" lon="15.794611631832">
        <ele>128.8</ele>
        <time>2019-10-20T12:04:47Z</time>
      </trkpt>
      <trkpt lat="60.63127579783" lon="15.79454139151">
        <ele>128.6</ele>
        <time>2019-10-20T12:04:48Z</time>
      </trkpt>
      <trkpt lat="60.631302536091" lon="15.794169905702">
        <ele>128.4</ele>
        <time>2019-10-20T12:04:54Z</time>
      </trkpt>
      <trkpt lat="60.631275294916" lon="15.793957927451">
        <ele>127.4</ele>
        <time>2019-10-20T12:04:57Z</time>
      </trkpt>
      <trkpt lat="60.631162223085" lon="15.793593901534">
        <ele>126.6</ele>
        <time>2019-10-20T12:05:03Z</time>
      </trkpt>
      <trkpt lat="60.631145291647" lon="15.793379995446">
        <ele>126.4</ele>
        <time>2019-10-20T12:05:06Z</time>
      </trkpt>
      <trkpt lat="60.631069938366" lon="15.793023094144">
        <ele>126</ele>
        <time>2019-10-20T12:05:12Z</time>
      </trkpt>
      <trkpt lat="60.630962230951" lon="15.792713718215">
        <ele>126.8</ele>
        <time>2019-10-20T12:05:19Z</time>
      </trkpt>
      <trkpt lat="60.630961728037" lon="15.792432589289">
        <ele>125.2</ele>
        <time>2019-10-20T12:05:24Z</time>
      </trkpt>
      <trkpt lat="60.630958375277" lon="15.79230593878">
        <ele>124</ele>
        <time>2019-10-20T12:05:26Z</time>
      </trkpt>
      <trkpt lat="60.630967595367" lon="15.792206361808">
        <ele>122.4</ele>
        <time>2019-10-20T12:05:28Z</time>
      </trkpt>
      <trkpt lat="60.630970193756" lon="15.792137043495">
        <ele>121</ele>
        <time>2019-10-20T12:05:30Z</time>
      </trkpt>
      <trkpt lat="60.630967092453" lon="15.791994886471">
        <ele>119.8</ele>
        <time>2019-10-20T12:05:33Z</time>
      </trkpt>
      <trkpt lat="60.630956782716" lon="15.791735550485">
        <ele>118.4</ele>
        <time>2019-10-20T12:05:37Z</time>
      </trkpt>
      <trkpt lat="60.630937420527" lon="15.791553830893">
        <ele>117.4</ele>
        <time>2019-10-20T12:05:40Z</time>
      </trkpt>
      <trkpt lat="60.630919399442" lon="15.791442519261">
        <ele>116.2</ele>
        <time>2019-10-20T12:05:42Z</time>
      </trkpt>
      <trkpt lat="60.630893331733" lon="15.791227691164">
        <ele>115.2</ele>
        <time>2019-10-20T12:05:46Z</time>
      </trkpt>
      <trkpt lat="60.630895846303" lon="15.790949914998">
        <ele>113.8</ele>
        <time>2019-10-20T12:05:51Z</time>
      </trkpt>
      <trkpt lat="60.630906072221" lon="15.79078378574">
        <ele>112.6</ele>
        <time>2019-10-20T12:05:54Z</time>
      </trkpt>
      <trkpt lat="60.63090867061" lon="15.790697787446">
        <ele>111.2</ele>
        <time>2019-10-20T12:05:56Z</time>
      </trkpt>
      <trkpt lat="60.630908419153" lon="15.790651435539">
        <ele>110.8</ele>
        <time>2019-10-20T12:05:57Z</time>
      </trkpt>
      <trkpt lat="60.630937504346" lon="15.790542889934">
        <ele>110.4</ele>
        <time>2019-10-20T12:06:00Z</time>
      </trkpt>
      <trkpt lat="60.630958375277" lon="15.790449767025">
        <ele>110.2</ele>
        <time>2019-10-20T12:06:03Z</time>
      </trkpt>
      <trkpt lat="60.630971283403" lon="15.790044585979">
        <ele>109.4</ele>
        <time>2019-10-20T12:06:11Z</time>
      </trkpt>
      <trkpt lat="60.630964661702" lon="15.78999337257">
        <ele>109</ele>
        <time>2019-10-20T12:06:12Z</time>
      </trkpt>
      <trkpt lat="60.630943371676" lon="15.789839229429">
        <ele>107.8</ele>
        <time>2019-10-20T12:06:15Z</time>
      </trkpt>
      <trkpt lat="60.630943539314" lon="15.789798325757">
        <ele>107.6</ele>
        <time>2019-10-20T12:06:16Z</time>
      </trkpt>
      <trkpt lat="60.630939516002" lon="15.789617360536">
        <ele>106.8</ele>
        <time>2019-10-20T12:06:20Z</time>
      </trkpt>
      <trkpt lat="60.630946724436" lon="15.789474449141">
        <ele>105.6</ele>
        <time>2019-10-20T12:06:24Z</time>
      </trkpt>
      <trkpt lat="60.630932056111" lon="15.789223495055">
        <ele>104.6</ele>
        <time>2019-10-20T12:06:29Z</time>
      </trkpt>
      <trkpt lat="60.630886542394" lon="15.788867851038">
        <ele>104</ele>
        <time>2019-10-20T12:06:35Z</time>
      </trkpt>
      <trkpt lat="60.630857708658" lon="15.788673055682">
        <ele>103.6</ele>
        <time>2019-10-20T12:06:39Z</time>
      </trkpt>
      <trkpt lat="60.630836167175" lon="15.788562330783">
        <ele>103.2</ele>
        <time>2019-10-20T12:06:42Z</time>
      </trkpt>
      <trkpt lat="60.630855277907" lon="15.788410618393">
        <ele>102.6</ele>
        <time>2019-10-20T12:06:47Z</time>
      </trkpt>
      <trkpt lat="60.630853601527" lon="15.788390250376">
        <ele>102.4</ele>
        <time>2019-10-20T12:06:48Z</time>
      </trkpt>
      <trkpt lat="60.630877154666" lon="15.788227390059">
        <ele>102</ele>
        <time>2019-10-20T12:07:01Z</time>
      </trkpt>
      <trkpt lat="60.630926104962" lon="15.788110714011">
        <ele>101.4</ele>
        <time>2019-10-20T12:07:06Z</time>
      </trkpt>
      <trkpt lat="60.630933229577" lon="15.788091184184">
        <ele>101.2</ele>
        <time>2019-10-20T12:07:08Z</time>
      </trkpt>
      <trkpt lat="60.630941527658" lon="15.788018345473">
        <ele>101</ele>
        <time>2019-10-20T12:07:10Z</time>
      </trkpt>
      <trkpt lat="60.630958878191" lon="15.787988841185">
        <ele>101</ele>
        <time>2019-10-20T12:07:12Z</time>
      </trkpt>
      <trkpt lat="60.631025765753" lon="15.787922456537">
        <ele>101</ele>
        <time>2019-10-20T12:07:17Z</time>
      </trkpt>
      <trkpt lat="60.631055689136" lon="15.78789454481">
        <ele>101</ele>
        <time>2019-10-20T12:07:19Z</time>
      </trkpt>
      <trkpt lat="60.631086031614" lon="15.787853222043">
        <ele>101</ele>
        <time>2019-10-20T12:07:22Z</time>
      </trkpt>
      <trkpt lat="60.631092653315" lon="15.78781826952">
        <ele>101</ele>
        <time>2019-10-20T12:07:25Z</time>
      </trkpt>
      <trkpt lat="60.631137412661" lon="15.787961432372">
        <ele>101.6</ele>
        <time>2019-10-20T12:07:30Z</time>
      </trkpt>
      <trkpt lat="60.631167922777" lon="15.788049107046">
        <ele>101.6</ele>
        <time>2019-10-20T12:07:34Z</time>
      </trkpt>
      <trkpt lat="60.631168006596" lon="15.788078527515">
        <ele>102</ele>
        <time>2019-10-20T12:07:36Z</time>
      </trkpt>
      <trkpt lat="60.631187955518" lon="15.788105517233">
        <ele>102.4</ele>
        <time>2019-10-20T12:07:39Z</time>
      </trkpt>
      <trkpt lat="60.63125987222" lon="15.788147762009">
        <ele>103</ele>
        <time>2019-10-20T12:07:46Z</time>
      </trkpt>
      <trkpt lat="60.63130178172" lon="15.788125298517">
        <ele>103</ele>
        <time>2019-10-20T12:07:48Z</time>
      </trkpt>
      <trkpt lat="60.631409740592" lon="15.788075342393">
        <ele>102.6</ele>
        <time>2019-10-20T12:07:54Z</time>
      </trkpt>
      <trkpt lat="60.631476376697" lon="15.787975597783">
        <ele>102.8</ele>
        <time>2019-10-20T12:07:59Z</time>
      </trkpt>
      <trkpt lat="60.631475873783" lon="15.787936286672">
        <ele>103</ele>
        <time>2019-10-20T12:08:02Z</time>
      </trkpt>
      <trkpt lat="60.631432371722" lon="15.787781472979">
        <ele>102.8</ele>
        <time>2019-10-20T12:08:11Z</time>
      </trkpt>
      <trkpt lat="60.631280324056" lon="15.787634622091">
        <ele>102.2</ele>
        <time>2019-10-20T12:08:18Z</time>
      </trkpt>
      <trkpt lat="60.631208826449" lon="15.787558598258">
        <ele>101.2</ele>
        <time>2019-10-20T12:08:21Z</time>
      </trkpt>
      <trkpt lat="60.631120145947" lon="15.787474863077">
        <ele>100</ele>
        <time>2019-10-20T12:08:25Z</time>
      </trkpt>
      <trkpt lat="60.631102711595" lon="15.787450220291">
        <ele>99.6</ele>
        <time>2019-10-20T12:08:27Z</time>
      </trkpt>
      <trkpt lat="60.631035907852" lon="15.787365563101">
        <ele>99.6</ele>
        <time>2019-10-20T12:08:32Z</time>
      </trkpt>
      <trkpt lat="60.631004727184" lon="15.787314768787">
        <ele>99.8</ele>
        <time>2019-10-20T12:08:34Z</time>
      </trkpt>
      <trkpt lat="60.630946892074" lon="15.787268668337">
        <ele>100.4</ele>
        <time>2019-10-20T12:08:37Z</time>
      </trkpt>
      <trkpt lat="60.630864917092" lon="15.787205133535">
        <ele>99.4</ele>
        <time>2019-10-20T12:08:42Z</time>
      </trkpt>
      <trkpt lat="60.630853852984" lon="15.787149645357">
        <ele>98.8</ele>
        <time>2019-10-20T12:08:45Z</time>
      </trkpt>
      <trkpt lat="60.630840190487" lon="15.787128774426">
        <ele>98.6</ele>
        <time>2019-10-20T12:08:46Z</time>
      </trkpt>
      <trkpt lat="60.630740529696" lon="15.787069262936">
        <ele>98.4</ele>
        <time>2019-10-20T12:08:51Z</time>
      </trkpt>
      <trkpt lat="60.630552607498" lon="15.78703959101">
        <ele>99.6</ele>
        <time>2019-10-20T12:08:59Z</time>
      </trkpt>
      <trkpt lat="60.630500304442" lon="15.787031795843">
        <ele>100</ele>
        <time>2019-10-20T12:09:01Z</time>
      </trkpt>
      <trkpt lat="60.630305676724" lon="15.787020564097">
        <ele>99.8</ele>
        <time>2019-10-20T12:09:09Z</time>
      </trkpt>
      <trkpt lat="60.630213140548" lon="15.786989215791">
        <ele>100</ele>
        <time>2019-10-20T12:09:13Z</time>
      </trkpt>
      <trkpt lat="60.63004114396" lon="15.787046631806">
        <ele>99</ele>
        <time>2019-10-20T12:09:24Z</time>
      </trkpt>
      <trkpt lat="60.630023709608" lon="15.786963231901">
        <ele>98.8</ele>
        <time>2019-10-20T12:09:29Z</time>
      </trkpt>
      <trkpt lat="60.629936286391" lon="15.78661881963">
        <ele>98.6</ele>
        <time>2019-10-20T12:09:36Z</time>
      </trkpt>
      <trkpt lat="60.629926898663" lon="15.786567522402">
        <ele>98.6</ele>
        <time>2019-10-20T12:09:37Z</time>
      </trkpt>
      <trkpt lat="60.629866548983" lon="15.786218080991">
        <ele>98.6</ele>
        <time>2019-10-20T12:09:45Z</time>
      </trkpt>
      <trkpt lat="60.629763451613" lon="15.78588959433">
        <ele>98.2</ele>
        <time>2019-10-20T12:09:54Z</time>
      </trkpt>
      <trkpt lat="60.629678794423" lon="15.785545852611">
        <ele>98.6</ele>
        <time>2019-10-20T12:10:02Z</time>
      </trkpt>
      <trkpt lat="60.629590365378" lon="15.785201105064">
        <ele>100</ele>
        <time>2019-10-20T12:10:09Z</time>
      </trkpt>
      <trkpt lat="60.629580893831" lon="15.784793074172">
        <ele>99.6</ele>
        <time>2019-10-20T12:10:17Z</time>
      </trkpt>
      <trkpt lat="60.629572260474" lon="15.784707327335">
        <ele>98.8</ele>
        <time>2019-10-20T12:10:19Z</time>
      </trkpt>
      <trkpt lat="60.6295684048" lon="15.784567098148">
        <ele>97.4</ele>
        <time>2019-10-20T12:10:22Z</time>
      </trkpt>
      <trkpt lat="60.629587264075" lon="15.784419660527">
        <ele>96.2</ele>
        <time>2019-10-20T12:10:25Z</time>
      </trkpt>
      <trkpt lat="60.629599334011" lon="15.784048174719">
        <ele>95.8</ele>
        <time>2019-10-20T12:10:32Z</time>
      </trkpt>
      <trkpt lat="60.629610062843" lon="15.783632264841">
        <ele>96.4</ele>
        <time>2019-10-20T12:10:39Z</time>
      </trkpt>
      <trkpt lat="60.629658174949" lon="15.783241500663">
        <ele>96.4</ele>
        <time>2019-10-20T12:10:46Z</time>
      </trkpt>
      <trkpt lat="60.629668568505" lon="15.78285283196">
        <ele>96.6</ele>
        <time>2019-10-20T12:10:53Z</time>
      </trkpt>
      <trkpt lat="60.629663790822" lon="15.782608248118">
        <ele>97.2</ele>
        <time>2019-10-20T12:10:59Z</time>
      </trkpt>
      <trkpt lat="60.629658426406" lon="15.782575977803">
        <ele>97.4</ele>
        <time>2019-10-20T12:11:00Z</time>
      </trkpt>
      <trkpt lat="60.629651888524" lon="15.782507162404">
        <ele>97.6</ele>
        <time>2019-10-20T12:11:02Z</time>
      </trkpt>
      <trkpt lat="60.629647278479" lon="15.782427953449">
        <ele>97.6</ele>
        <time>2019-10-20T12:11:05Z</time>
      </trkpt>
      <trkpt lat="60.629634537991" lon="15.782356036747">
        <ele>97.6</ele>
        <time>2019-10-20T12:11:07Z</time>
      </trkpt>
      <trkpt lat="60.629581229107" lon="15.782077254753">
        <ele>97</ele>
        <time>2019-10-20T12:11:14Z</time>
      </trkpt>
      <trkpt lat="60.629542337091" lon="15.782000057454">
        <ele>96.6</ele>
        <time>2019-10-20T12:11:16Z</time>
      </trkpt>
      <trkpt lat="60.629518532495" lon="15.781879944827">
        <ele>96.2</ele>
        <time>2019-10-20T12:11:19Z</time>
      </trkpt>
      <trkpt lat="60.62951895159" lon="15.781858151887">
        <ele>96.2</ele>
        <time>2019-10-20T12:11:20Z</time>
      </trkpt>
      <trkpt lat="60.629519957418" lon="15.781790593773">
        <ele>96.2</ele>
        <time>2019-10-20T12:11:22Z</time>
      </trkpt>
      <trkpt lat="60.62951895159" lon="15.781744493323">
        <ele>96.2</ele>
        <time>2019-10-20T12:11:24Z</time>
      </trkpt>
      <trkpt lat="60.629503109799" lon="15.781653801165">
        <ele>96.4</ele>
        <time>2019-10-20T12:11:28Z</time>
      </trkpt>
      <trkpt lat="60.629452986037" lon="15.781500915309">
        <ele>97.2</ele>
        <time>2019-10-20T12:11:34Z</time>
      </trkpt>
      <trkpt lat="60.629456338797" lon="15.781477026894">
        <ele>97.4</ele>
        <time>2019-10-20T12:11:35Z</time>
      </trkpt>
      <trkpt lat="60.629447118707" lon="15.781426819313">
        <ele>97.4</ele>
        <time>2019-10-20T12:11:36Z</time>
      </trkpt>
      <trkpt lat="60.629408897243" lon="15.781222049496">
        <ele>97.6</ele>
        <time>2019-10-20T12:11:41Z</time>
      </trkpt>
      <trkpt lat="60.629388696864" lon="15.781105121991">
        <ele>97.4</ele>
        <time>2019-10-20T12:11:45Z</time>
      </trkpt>
      <trkpt lat="60.629359527852" lon="15.78099456473">
        <ele>97.2</ele>
        <time>2019-10-20T12:11:50Z</time>
      </trkpt>
      <trkpt lat="60.62930186038" lon="15.780849893136">
        <ele>97.2</ele>
        <time>2019-10-20T12:11:54Z</time>
      </trkpt>
      <trkpt lat="60.62922055595" lon="15.780444209176">
        <ele>97.4</ele>
        <time>2019-10-20T12:12:04Z</time>
      </trkpt>
      <trkpt lat="60.629208402195" lon="15.78037598051">
        <ele>97.4</ele>
        <time>2019-10-20T12:12:06Z</time>
      </trkpt>
      <trkpt lat="60.629177892079" lon="15.780190153787">
        <ele>98</ele>
        <time>2019-10-20T12:12:12Z</time>
      </trkpt>
      <trkpt lat="60.629162888478" lon="15.780057803586">
        <ele>98.6</ele>
        <time>2019-10-20T12:12:16Z</time>
      </trkpt>
      <trkpt lat="60.629152075827" lon="15.779919334598">
        <ele>99.6</ele>
        <time>2019-10-20T12:12:20Z</time>
      </trkpt>
      <trkpt lat="60.629139922072" lon="15.779844400412">
        <ele>100.2</ele>
        <time>2019-10-20T12:12:22Z</time>
      </trkpt>
      <trkpt lat="60.629099186038" lon="15.779744571983">
        <ele>100.8</ele>
        <time>2019-10-20T12:12:25Z</time>
      </trkpt>
      <trkpt lat="60.629081500229" lon="15.77970794308">
        <ele>101.2</ele>
        <time>2019-10-20T12:12:26Z</time>
      </trkpt>
      <trkpt lat="60.629041602385" lon="15.779627393021">
        <ele>101.8</ele>
        <time>2019-10-20T12:12:28Z</time>
      </trkpt>
      <trkpt lat="60.628881005181" lon="15.77949085187">
        <ele>102.4</ele>
        <time>2019-10-20T12:12:35Z</time>
      </trkpt>
      <trkpt lat="60.628824259718" lon="15.779472579328">
        <ele>102.4</ele>
        <time>2019-10-20T12:12:39Z</time>
      </trkpt>
      <trkpt lat="60.628733986655" lon="15.779453049501">
        <ele>102.4</ele>
        <time>2019-10-20T12:12:45Z</time>
      </trkpt>
      <trkpt lat="60.628606497956" lon="15.779396304038">
        <ele>103</ele>
        <time>2019-10-20T12:12:50Z</time>
      </trkpt>
      <trkpt lat="60.628459814706" lon="15.779413906028">
        <ele>104</ele>
        <time>2019-10-20T12:12:58Z</time>
      </trkpt>
      <trkpt lat="60.628391418402" lon="15.779415247132">
        <ele>104.2</ele>
        <time>2019-10-20T12:13:04Z</time>
      </trkpt>
      <trkpt lat="60.628372978222" lon="15.779427903801">
        <ele>104.2</ele>
        <time>2019-10-20T12:13:06Z</time>
      </trkpt>
      <trkpt lat="60.628365685969" lon="15.779426814154">
        <ele>104</ele>
        <time>2019-10-20T12:13:09Z</time>
      </trkpt>
      <trkpt lat="60.628354873318" lon="15.779208800935">
        <ele>105.4</ele>
        <time>2019-10-20T12:13:15Z</time>
      </trkpt>
      <trkpt lat="60.628361495019" lon="15.779123473193">
        <ele>106.6</ele>
        <time>2019-10-20T12:13:17Z</time>
      </trkpt>
      <trkpt lat="60.628371385661" lon="15.779098914226">
        <ele>106.6</ele>
        <time>2019-10-20T12:13:18Z</time>
      </trkpt>
      <trkpt lat="60.628404913261" lon="15.778983160187">
        <ele>107</ele>
        <time>2019-10-20T12:13:22Z</time>
      </trkpt>
      <trkpt lat="60.628416228826" lon="15.778810912142">
        <ele>107.8</ele>
        <time>2019-10-20T12:13:26Z</time>
      </trkpt>
      <trkpt lat="60.628413295161" lon="15.778734636852">
        <ele>108.6</ele>
        <time>2019-10-20T12:13:28Z</time>
      </trkpt>
      <trkpt lat="60.628410612953" lon="15.778698846139">
        <ele>108.8</ele>
        <time>2019-10-20T12:13:29Z</time>
      </trkpt>
      <trkpt lat="60.628406086727" lon="15.778631623301">
        <ele>109.4</ele>
        <time>2019-10-20T12:13:31Z</time>
      </trkpt>
      <trkpt lat="60.628361662657" lon="15.778502122946">
        <ele>109.8</ele>
        <time>2019-10-20T12:13:35Z</time>
      </trkpt>
      <trkpt lat="60.628277424562" lon="15.778289306505">
        <ele>110.4</ele>
        <time>2019-10-20T12:13:41Z</time>
      </trkpt>
      <trkpt lat="60.628121185946" lon="15.778214456138">
        <ele>111</ele>
        <time>2019-10-20T12:13:48Z</time>
      </trkpt>
      <trkpt lat="60.6280093714" lon="15.778189897171">
        <ele>112</ele>
        <time>2019-10-20T12:13:53Z</time>
      </trkpt>
      <trkpt lat="60.627933263748" lon="15.77816651167">
        <ele>113.4</ele>
        <time>2019-10-20T12:13:57Z</time>
      </trkpt>
      <trkpt lat="60.627909542971" lon="15.778141952703">
        <ele>114.6</ele>
        <time>2019-10-20T12:13:59Z</time>
      </trkpt>
      <trkpt lat="60.627894204094" lon="15.778137007382">
        <ele>115.4</ele>
        <time>2019-10-20T12:14:01Z</time>
      </trkpt>
      <trkpt lat="60.627881547425" lon="15.77811705846">
        <ele>115.8</ele>
        <time>2019-10-20T12:14:02Z</time>
      </trkpt>
      <trkpt lat="60.627865454177" lon="15.77808353086">
        <ele>116</ele>
        <time>2019-10-20T12:14:04Z</time>
      </trkpt>
      <trkpt lat="60.627841649581" lon="15.778053775115">
        <ele>116.6</ele>
        <time>2019-10-20T12:14:06Z</time>
      </trkpt>
      <trkpt lat="60.627815414234" lon="15.77805167964">
        <ele>116.8</ele>
        <time>2019-10-20T12:14:08Z</time>
      </trkpt>
      <trkpt lat="60.627802757565" lon="15.778054529486">
        <ele>116.8</ele>
        <time>2019-10-20T12:14:09Z</time>
      </trkpt>
      <trkpt lat="60.627758082038" lon="15.778036843677">
        <ele>117</ele>
        <time>2019-10-20T12:14:11Z</time>
      </trkpt>
      <trkpt lat="60.627722291325" lon="15.778034496745">
        <ele>118</ele>
        <time>2019-10-20T12:14:13Z</time>
      </trkpt>
      <trkpt lat="60.627694463417" lon="15.778041118446">
        <ele>119.4</ele>
        <time>2019-10-20T12:14:15Z</time>
      </trkpt>
      <trkpt lat="60.627678621626" lon="15.778021001886">
        <ele>119.8</ele>
        <time>2019-10-20T12:14:16Z</time>
      </trkpt>
      <trkpt lat="60.627641908904" lon="15.777989821218">
        <ele>120.6</ele>
        <time>2019-10-20T12:14:18Z</time>
      </trkpt>
      <trkpt lat="60.627633107909" lon="15.777976913092">
        <ele>121</ele>
        <time>2019-10-20T12:14:19Z</time>
      </trkpt>
      <trkpt lat="60.627602094879" lon="15.777945564786">
        <ele>121</ele>
        <time>2019-10-20T12:14:22Z</time>
      </trkpt>
      <trkpt lat="60.627585331079" lon="15.777932572841">
        <ele>120.8</ele>
        <time>2019-10-20T12:14:24Z</time>
      </trkpt>
      <trkpt lat="60.62750729559" lon="15.777945313329">
        <ele>121</ele>
        <time>2019-10-20T12:14:28Z</time>
      </trkpt>
      <trkpt lat="60.627318451383" lon="15.777972303047">
        <ele>120.8</ele>
        <time>2019-10-20T12:14:36Z</time>
      </trkpt>
      <trkpt lat="60.627212001253" lon="15.778035251116">
        <ele>121.2</ele>
        <time>2019-10-20T12:14:42Z</time>
      </trkpt>
      <trkpt lat="60.627184760078" lon="15.778062408472">
        <ele>121.4</ele>
        <time>2019-10-20T12:14:44Z</time>
      </trkpt>
      <trkpt lat="60.627143940225" lon="15.778111023492">
        <ele>121.6</ele>
        <time>2019-10-20T12:14:47Z</time>
      </trkpt>
      <trkpt lat="60.627061043234" lon="15.778218982364">
        <ele>119</ele>
        <time>2019-10-20T12:14:53Z</time>
      </trkpt>
      <trkpt lat="60.627028270005" lon="15.778253599611">
        <ele>118</ele>
        <time>2019-10-20T12:14:55Z</time>
      </trkpt>
      <trkpt lat="60.627004800685" lon="15.778322666467">
        <ele>117</ele>
        <time>2019-10-20T12:14:57Z</time>
      </trkpt>
      <trkpt lat="60.626982169555" lon="15.778373376962">
        <ele>115.8</ele>
        <time>2019-10-20T12:14:59Z</time>
      </trkpt>
      <trkpt lat="60.626965238117" lon="15.77841293953">
        <ele>114.6</ele>
        <time>2019-10-20T12:15:01Z</time>
      </trkpt>
      <trkpt lat="60.626954593104" lon="15.778423081629">
        <ele>114</ele>
        <time>2019-10-20T12:15:02Z</time>
      </trkpt>
      <trkpt lat="60.626904469342" lon="15.77846155455">
        <ele>113.2</ele>
        <time>2019-10-20T12:15:05Z</time>
      </trkpt>
      <trkpt lat="60.626801455791" lon="15.778552833441">
        <ele>112.4</ele>
        <time>2019-10-20T12:15:10Z</time>
      </trkpt>
      <trkpt lat="60.626792906253" lon="15.778587450688">
        <ele>112</ele>
        <time>2019-10-20T12:15:11Z</time>
      </trkpt>
      <trkpt lat="60.626787122742" lon="15.77861410513">
        <ele>111.6</ele>
        <time>2019-10-20T12:15:12Z</time>
      </trkpt>
      <trkpt lat="60.626769185476" lon="15.778706892763">
        <ele>110.8</ele>
        <time>2019-10-20T12:15:15Z</time>
      </trkpt>
      <trkpt lat="60.626756361169" lon="15.778788700107">
        <ele>110.2</ele>
        <time>2019-10-20T12:15:17Z</time>
      </trkpt>
      <trkpt lat="60.626749404192" lon="15.778824826096">
        <ele>109.6</ele>
        <time>2019-10-20T12:15:18Z</time>
      </trkpt>
      <trkpt lat="60.626738172446" lon="15.778885008138">
        <ele>108.8</ele>
        <time>2019-10-20T12:15:20Z</time>
      </trkpt>
      <trkpt lat="60.626725767234" lon="15.778926247086">
        <ele>108.6</ele>
        <time>2019-10-20T12:15:21Z</time>
      </trkpt>
      <trkpt lat="60.626637841103" lon="15.779221206147">
        <ele>107.4</ele>
        <time>2019-10-20T12:15:27Z</time>
      </trkpt>
      <trkpt lat="60.626613365955" lon="15.779331009037">
        <ele>106</ele>
        <time>2019-10-20T12:15:29Z</time>
      </trkpt>
      <trkpt lat="60.626593333214" lon="15.779423629032">
        <ele>104.8</ele>
        <time>2019-10-20T12:15:31Z</time>
      </trkpt>
      <trkpt lat="60.626559805614" lon="15.779812800649">
        <ele>104.6</ele>
        <time>2019-10-20T12:15:37Z</time>
      </trkpt>
      <trkpt lat="60.626518147571" lon="15.780099042534">
        <ele>103.8</ele>
        <time>2019-10-20T12:15:42Z</time>
      </trkpt>
      <trkpt lat="60.626491157853" lon="15.780519478638">
        <ele>103</ele>
        <time>2019-10-20T12:15:49Z</time>
      </trkpt>
      <trkpt lat="60.626483362686" lon="15.780560801405">
        <ele>102.4</ele>
        <time>2019-10-20T12:15:50Z</time>
      </trkpt>
      <trkpt lat="60.626480764297" lon="15.780584606001">
        <ele>101.8</ele>
        <time>2019-10-20T12:15:51Z</time>
      </trkpt>
      <trkpt lat="60.626477495356" lon="15.780603549095">
        <ele>101.2</ele>
        <time>2019-10-20T12:15:52Z</time>
      </trkpt>
      <trkpt lat="60.626438687159" lon="15.780768840163">
        <ele>100</ele>
        <time>2019-10-20T12:15:57Z</time>
      </trkpt>
      <trkpt lat="60.626419911703" lon="15.780792309483">
        <ele>100</ele>
        <time>2019-10-20T12:15:58Z</time>
      </trkpt>
      <trkpt lat="60.626408763776" lon="15.780806726351">
        <ele>100</ele>
        <time>2019-10-20T12:15:59Z</time>
      </trkpt>
      <trkpt lat="60.626379762402" lon="15.780823238694">
        <ele>100</ele>
        <time>2019-10-20T12:16:01Z</time>
      </trkpt>
      <trkpt lat="60.62634640244" lon="15.780878391596">
        <ele>99.8</ele>
        <time>2019-10-20T12:16:03Z</time>
      </trkpt>
      <trkpt lat="60.626306085501" lon="15.780919379087">
        <ele>99.8</ele>
        <time>2019-10-20T12:16:05Z</time>
      </trkpt>
      <trkpt lat="60.626275743023" lon="15.780958606379">
        <ele>99.6</ele>
        <time>2019-10-20T12:16:07Z</time>
      </trkpt>
      <trkpt lat="60.626230061668" lon="15.780974699627">
        <ele>99.6</ele>
        <time>2019-10-20T12:16:10Z</time>
      </trkpt>
      <trkpt lat="60.626135849112" lon="15.781049130899">
        <ele>99.6</ele>
        <time>2019-10-20T12:16:14Z</time>
      </trkpt>
      <trkpt lat="60.626100980408" lon="15.781060278826">
        <ele>98.8</ele>
        <time>2019-10-20T12:16:16Z</time>
      </trkpt>
      <trkpt lat="60.626067620446" lon="15.78105491441">
        <ele>98.2</ele>
        <time>2019-10-20T12:16:17Z</time>
      </trkpt>
      <trkpt lat="60.626019424521" lon="15.781058350989">
        <ele>97.6</ele>
        <time>2019-10-20T12:16:19Z</time>
      </trkpt>
      <trkpt lat="60.625962595239" lon="15.78102725414">
        <ele>97.4</ele>
        <time>2019-10-20T12:16:22Z</time>
      </trkpt>
      <trkpt lat="60.625775930326" lon="15.781121299058">
        <ele>98.2</ele>
        <time>2019-10-20T12:16:31Z</time>
      </trkpt>
      <trkpt lat="60.625773164299" lon="15.781132446985">
        <ele>98.4</ele>
        <time>2019-10-20T12:16:32Z</time>
      </trkpt>
      <trkpt lat="60.625708120755" lon="15.781140661247">
        <ele>98</ele>
        <time>2019-10-20T12:16:36Z</time>
      </trkpt>
      <trkpt lat="60.62567165949" lon="15.781170500811">
        <ele>97.6</ele>
        <time>2019-10-20T12:16:38Z</time>
      </trkpt>
      <trkpt lat="60.625618685882" lon="15.781273011448">
        <ele>97.2</ele>
        <time>2019-10-20T12:16:41Z</time>
      </trkpt>
      <trkpt lat="60.625594629829" lon="15.781308466885">
        <ele>97.6</ele>
        <time>2019-10-20T12:16:43Z</time>
      </trkpt>
      <trkpt lat="60.625547942646" lon="15.781337049164">
        <ele>97.6</ele>
        <time>2019-10-20T12:16:46Z</time>
      </trkpt>
      <trkpt lat="60.6255115652" lon="15.78134325177">
        <ele>97.8</ele>
        <time>2019-10-20T12:16:48Z</time>
      </trkpt>
      <trkpt lat="60.625380891379" lon="15.781459927818">
        <ele>98</ele>
        <time>2019-10-20T12:16:56Z</time>
      </trkpt>
      <trkpt lat="60.625377203343" lon="15.781488929192">
        <ele>99</ele>
        <time>2019-10-20T12:16:58Z</time>
      </trkpt>
      <trkpt lat="60.625338395146" lon="15.781532263615">
        <ele>100</ele>
        <time>2019-10-20T12:17:01Z</time>
      </trkpt>
      <trkpt lat="60.625324229735" lon="15.78155112289">
        <ele>100.4</ele>
        <time>2019-10-20T12:17:02Z</time>
      </trkpt>
      <trkpt lat="60.62526262277" lon="15.781559420971">
        <ele>101.2</ele>
        <time>2019-10-20T12:17:05Z</time>
      </trkpt>
      <trkpt lat="60.625091715829" lon="15.781304946487">
        <ele>102</ele>
        <time>2019-10-20T12:17:11Z</time>
      </trkpt>
      <trkpt lat="60.625043938999" lon="15.781158347056">
        <ele>102.2</ele>
        <time>2019-10-20T12:17:13Z</time>
      </trkpt>
      <trkpt lat="60.624875630447" lon="15.781004036277">
        <ele>102.8</ele>
        <time>2019-10-20T12:17:18Z</time>
      </trkpt>
      <trkpt lat="60.624783429547" lon="15.780892473188">
        <ele>103.4</ele>
        <time>2019-10-20T12:17:21Z</time>
      </trkpt>
      <trkpt lat="60.624688378801" lon="15.780732630355">
        <ele>104.2</ele>
        <time>2019-10-20T12:17:27Z</time>
      </trkpt>
      <trkpt lat="60.624692402113" lon="15.781112078968">
        <ele>103</ele>
        <time>2019-10-20T12:17:35Z</time>
      </trkpt>
      <trkpt lat="60.624697095977" lon="15.781183492756">
        <ele>102</ele>
        <time>2019-10-20T12:17:37Z</time>
      </trkpt>
      <trkpt lat="60.624699275271" lon="15.781204028411">
        <ele>101.8</ele>
        <time>2019-10-20T12:17:38Z</time>
      </trkpt>
      <trkpt lat="60.624678571978" lon="15.781193131941">
        <ele>101.2</ele>
        <time>2019-10-20T12:17:47Z</time>
      </trkpt>
      <trkpt lat="60.624544377759" lon="15.780940669113">
        <ele>101.2</ele>
        <time>2019-10-20T12:17:52Z</time>
      </trkpt>
      <trkpt lat="60.624402053097" lon="15.780613607375">
        <ele>102.4</ele>
        <time>2019-10-20T12:17:57Z</time>
      </trkpt>
      <trkpt lat="60.6243464811" lon="15.780515036231">
        <ele>103.4</ele>
        <time>2019-10-20T12:17:59Z</time>
      </trkpt>
      <trkpt lat="60.624266266317" lon="15.780397438174">
        <ele>104.6</ele>
        <time>2019-10-20T12:18:03Z</time>
      </trkpt>
      <trkpt lat="60.624421331467" lon="15.780205157388">
        <ele>105.4</ele>
        <time>2019-10-20T12:18:08Z</time>
      </trkpt>
      <trkpt lat="60.624505401924" lon="15.780139862387">
        <ele>106</ele>
        <time>2019-10-20T12:18:10Z</time>
      </trkpt>
      <trkpt lat="60.624696173968" lon="15.779942384823">
        <ele>105.8</ele>
        <time>2019-10-20T12:18:15Z</time>
      </trkpt>
      <trkpt lat="60.624791308533" lon="15.779807268595">
        <ele>105.4</ele>
        <time>2019-10-20T12:18:22Z</time>
      </trkpt>
      <trkpt lat="60.624786111755" lon="15.779767203113">
        <ele>105.6</ele>
        <time>2019-10-20T12:18:24Z</time>
      </trkpt>
      <trkpt lat="60.624767923032" lon="15.779769550045">
        <ele>105.8</ele>
        <time>2019-10-20T12:18:26Z</time>
      </trkpt>
      <trkpt lat="60.624683768756" lon="15.779800060161">
        <ele>106.2</ele>
        <time>2019-10-20T12:18:29Z</time>
      </trkpt>
      <trkpt lat="60.624501294793" lon="15.779869378474">
        <ele>106</ele>
        <time>2019-10-20T12:18:33Z</time>
      </trkpt>
      <trkpt lat="60.624324520522" lon="15.779943977384">
        <ele>106.2</ele>
        <time>2019-10-20T12:18:37Z</time>
      </trkpt>
      <trkpt lat="60.624202982972" lon="15.780000136114">
        <ele>107</ele>
        <time>2019-10-20T12:18:40Z</time>
      </trkpt>
      <trkpt lat="60.624072560608" lon="15.7800666884">
        <ele>107.4</ele>
        <time>2019-10-20T12:18:43Z</time>
      </trkpt>
      <trkpt lat="60.623985975581" lon="15.780045146917">
        <ele>107.4</ele>
        <time>2019-10-20T12:18:45Z</time>
      </trkpt>
      <trkpt lat="60.623921351132" lon="15.779938529149">
        <ele>106.8</ele>
        <time>2019-10-20T12:18:47Z</time>
      </trkpt>
      <trkpt lat="60.62386619823" lon="15.779786230026">
        <ele>106.4</ele>
        <time>2019-10-20T12:18:49Z</time>
      </trkpt>
      <trkpt lat="60.623818086124" lon="15.779636529292">
        <ele>106</ele>
        <time>2019-10-20T12:18:51Z</time>
      </trkpt>
      <trkpt lat="60.623753210218" lon="15.779446930714">
        <ele>107</ele>
        <time>2019-10-20T12:18:54Z</time>
      </trkpt>
      <trkpt lat="60.623726555776" lon="15.779334194159">
        <ele>108.2</ele>
        <time>2019-10-20T12:18:56Z</time>
      </trkpt>
      <trkpt lat="60.623719682618" lon="15.779292871392">
        <ele>108.6</ele>
        <time>2019-10-20T12:18:57Z</time>
      </trkpt>
    </trkseg>
  </trk>
</gpx>